^^
Lockford-Weather Station Historical Data
 
Daily Summary for June 20, 2018 Units:  English    Metric   Both
Daily Weekly Monthly Yearly Custom
  Current: High: Low: Average:
Temperature: 80.4 °F 80.4 °F 49.8 °F 62.3 °F
Dew Point: 55.2 °F 57.0 °F 47.6 °F 51.7 °F
Humidity: 42% 95% 41% 71%
Wind Speed: 2.2mph 3.8mph 0.0mph 0.3mph
Wind Gust: 6.9mph 8.3mph - -
WindSE - - South
Pressure: 30.07 in 30.11 in 30.07 in -
Precipitation: 0.04 in      
Historical Graphs
 
 
Tabular Data for June 20, 2018
Time Temperature Dew Point Pressure Wind Wind Speed Wind Gust Humidity Rainfall Rate (Hourly)
00:03 61.3 °F 49.5 °F 30.11 in Calm     65% 0.00 in
00:07 61.2 °F 49.3 °F 30.10 in Calm     65% 0.00 in
00:13 60.6 °F 49.2 °F 30.10 in Calm     66% 0.00 in
00:18 60.3 °F 49.7 °F 30.10 in Calm     68% 0.00 in
00:23 60.1 °F 49.9 °F 30.10 in Calm     69% 0.00 in
00:28 59.9 °F 49.7 °F 30.11 in Calm     69% 0.00 in
00:34 59.7 °F 50.3 °F 30.11 in Calm     71% 0.00 in
00:38 59.5 °F 50.1 °F 30.10 in Calm     71% 0.00 in
00:43 59.2 °F 49.8 °F 30.11 in Calm     71% 0.00 in
00:48 59.0 °F 49.6 °F 30.10 in Calm     71% 0.00 in
00:54 58.5 °F 49.1 °F 30.10 in Calm     71% 0.00 in
00:59 58.3 °F 49.7 °F 30.11 in Calm     73% 0.00 in
01:03 58.1 °F 49.5 °F 30.10 in Calm     73% 0.00 in
01:08 57.7 °F 48.8 °F 30.10 in Calm     72% 0.00 in
01:14 57.7 °F 49.1 °F 30.10 in Calm     73% 0.00 in
01:19 57.6 °F 49.0 °F 30.10 in Calm     73% 0.00 in
01:24 57.2 °F 48.6 °F 30.11 in Calm     73% 0.00 in
01:28 56.7 °F 48.8 °F 30.11 in Calm     75% 0.00 in
01:33 56.5 °F 48.6 °F 30.11 in Calm     75% 0.00 in
01:39 56.3 °F 48.8 °F 30.11 in Calm     76% 0.00 in
01:44 55.9 °F 48.8 °F 30.10 in Calm     77% 0.00 in
01:49 55.8 °F 49.0 °F 30.11 in Calm     78% 0.00 in
01:53 55.4 °F 48.7 °F 30.11 in Calm     78% 0.00 in
01:59 55.2 °F 48.5 °F 30.10 in Calm     78% 0.00 in
02:03 55.2 °F 48.5 °F 30.10 in Calm     78% 0.00 in
02:08 54.9 °F 49.1 °F 30.11 in Calm     81% 0.00 in
02:13 54.5 °F 48.8 °F 30.10 in Calm     81% 0.00 in
02:18 54.1 °F 48.4 °F 30.10 in Calm     81% 0.00 in
02:23 54.0 °F 48.3 °F 30.10 in Calm     81% 0.00 in
02:28 53.8 °F 48.1 °F 30.11 in Calm     81% 0.00 in
02:33 53.6 °F 47.9 °F 30.10 in Calm     81% 0.00 in
02:39 53.2 °F 47.9 °F 30.11 in Calm     82% 0.00 in
02:43 53.1 °F 47.7 °F 30.11 in Calm     82% 0.00 in
02:48 52.9 °F 47.9 °F 30.10 in Calm     83% 0.00 in
02:53 52.7 °F 48.0 °F 30.10 in Calm     84% 0.00 in
02:59 52.7 °F 48.0 °F 30.10 in Calm     84% 0.00 in
03:04 52.7 °F 48.0 °F 30.10 in Calm     84% 0.00 in
03:08 52.5 °F 48.1 °F 30.10 in Calm     85% 0.00 in
03:13 52.3 °F 48.3 °F 30.10 in Calm     86% 0.00 in
03:19 52.2 °F 48.4 °F 30.10 in Calm     87% 0.00 in
03:24 52.2 °F 48.7 °F 30.10 in Calm     88% 0.00 in
03:29 52.2 °F 48.7 °F 30.10 in Calm     88% 0.00 in
03:33 52.2 °F 48.4 °F 30.09 in Calm     87% 0.00 in
03:39 52.2 °F 48.7 °F 30.09 in Calm     88% 0.00 in
03:44 52.0 °F 48.5 °F 30.10 in Calm     88% 0.00 in
03:49 52.2 °F 49.0 °F 30.10 in Calm   2.3 mph 89% 0.00 in
03:54 52.2 °F 48.7 °F 30.10 in Calm     88% 0.00 in
03:58 52.2 °F 48.7 °F 30.10 in Calm     88% 0.00 in
04:04 52.2 °F 48.7 °F 30.09 in Calm     88% 0.00 in
04:08 52.2 °F 48.4 °F 30.10 in Calm     87% 0.00 in
04:13 52.2 °F 48.7 °F 30.10 in Calm     88% 0.00 in
04:19 52.0 °F 48.8 °F 30.10 in Calm     89% 0.00 in
04:23 52.0 °F 49.1 °F 30.09 in Calm     90% 0.00 in
04:28 51.8 °F 49.0 °F 30.09 in Calm     90% 0.00 in
04:33 51.6 °F 48.8 °F 30.09 in Calm     90% 0.00 in
04:39 51.4 °F 48.6 °F 30.09 in Calm     90% 0.00 in
04:44 51.4 °F 48.9 °F 30.10 in Calm     91% 0.00 in
04:48 51.3 °F 48.1 °F 30.09 in Calm     89% 0.00 in
04:53 51.1 °F 48.0 °F 30.09 in Calm     89% 0.00 in
04:58 50.7 °F 47.6 °F 30.10 in Calm     89% 0.00 in
05:04 50.5 °F 47.7 °F 30.09 in Calm     90% 0.00 in
05:09 50.4 °F 47.8 °F 30.09 in Calm     91% 0.00 in
05:13 50.5 °F 48.0 °F 30.09 in Calm     91% 0.00 in
05:18 50.5 °F 48.0 °F 30.09 in Calm     91% 0.00 in
05:24 50.4 °F 47.8 °F 30.10 in Calm     91% 0.00 in
05:29 50.4 °F 47.8 °F 30.09 in Calm     91% 0.00 in
05:34 50.4 °F 48.4 °F 30.09 in Calm     93% 0.00 in
05:38 50.2 °F 48.2 °F 30.09 in Calm     93% 0.00 in
05:44 50.2 °F 48.2 °F 30.09 in Calm     93% 0.00 in
05:49 50.0 °F 48.3 °F 30.09 in Calm     94% 0.00 in
05:54 49.8 °F 48.2 °F 30.09 in Calm     94% 0.00 in
05:58 50.0 °F 48.3 °F 30.09 in Calm   1.2 mph 94% 0.02 in
06:03 50.5 °F 49.2 °F 30.09 in Calm     95% 0.02 in
06:08 51.8 °F 50.4 °F 30.09 in Calm     95% 0.02 in
06:13 52.7 °F 50.4 °F 30.09 in Calm     92% 0.02 in
06:19 53.4 °F 50.6 °F 30.09 in Calm     90% 0.02 in
06:23 54.3 °F 51.1 °F 30.09 in Calm   1.2 mph 89% 0.02 in
06:28 55.9 °F 52.4 °F 30.09 in Calm     88% 0.02 in
06:33 56.8 °F 52.4 °F 30.09 in Calm     85% 0.02 in
06:38 57.7 °F 53.3 °F 30.09 in Calm     85% 0.02 in
06:44 60.1 °F 54.2 °F 30.09 in Calm     81% 0.02 in
06:48 60.8 °F 54.2 °F 30.10 in Calm     79% 0.02 in
06:53 62.4 °F 55.1 °F 30.09 in Calm     77% 0.02 in
06:58 64.2 °F 55.8 °F 30.09 in Calm     74% 0.00 in
07:04 66.4 °F 55.9 °F 30.10 in Calm   1.2 mph 69% 0.00 in
07:09 67.5 °F 56.5 °F 30.10 in Calm     68% 0.00 in
07:13 67.3 °F 55.1 °F 30.10 in Calm   2.3 mph 65% 0.00 in
07:18 66.7 °F 55.0 °F 30.10 in Calm     66% 0.00 in
07:23 67.5 °F 55.7 °F 30.09 in Calm     66% 0.00 in
07:29 68.5 °F 56.3 °F 30.10 in Calm     65% 0.00 in
07:34 67.1 °F 53.6 °F 30.10 in Calm   2.3 mph 62% 0.00 in
07:38 66.4 °F 54.3 °F 30.10 in Calm     65% 0.00 in
07:43 66.7 °F 55.0 °F 30.10 in Calm     66% 0.00 in
07:49 66.4 °F 54.7 °F 30.10 in NW 1.6 mph 3.8 mph 66% 0.00 in
07:54 66.6 °F 55.7 °F 30.10 in Calm   2.3 mph 68% 0.00 in
07:58 68.4 °F 57.0 °F 30.10 in Calm     67% 0.00 in
08:03 68.7 °F 56.5 °F 30.10 in Calm   1.2 mph 65% 0.00 in
08:09 68.4 °F 56.1 °F 30.10 in Calm   4.6 mph 65% 0.00 in
08:14 68.5 °F 55.9 °F 30.10 in Calm   2.3 mph 64% 0.00 in
08:19 68.9 °F 56.2 °F 30.10 in Calm   1.6 mph 64% 0.01 in
08:24 69.1 °F 55.5 °F 30.10 in NW 0.7 mph 3.5 mph 62% 0.01 in
08:28 70.0 °F 56.4 °F 30.10 in SW 0.7 mph 3.5 mph 62% 0.01 in
08:34 69.6 °F 55.1 °F 30.10 in NW 2.2 mph 4.6 mph 60% 0.01 in
08:39 69.6 °F 55.1 °F 30.10 in Calm   3.5 mph 60% 0.01 in
08:44 71.1 °F 55.5 °F 30.10 in Calm   1.6 mph 58% 0.01 in
08:48 72.5 °F 56.4 °F 30.10 in Calm     57% 0.01 in
08:54 72.1 °F 55.1 °F 30.11 in Calm   3.5 mph 55% 0.01 in
08:59 71.8 °F 55.2 °F 30.11 in South 2.2 mph 3.8 mph 56% 0.01 in
09:04 71.8 °F 55.2 °F 30.11 in SW 0.7 mph 3.5 mph 56% 0.01 in
09:09 71.6 °F 55.1 °F 30.10 in Calm   3.5 mph 56% 0.01 in
09:13 72.1 °F 54.6 °F 30.11 in NW 1.6 mph 4.6 mph 54% 0.01 in
09:19 72.1 °F 55.1 °F 30.10 in Calm   3.5 mph 55% 0.00 in
09:24 72.7 °F 54.6 °F 30.10 in NW 0.7 mph 3.5 mph 53% 0.00 in
09:29 73.6 °F 54.9 °F 30.10 in NE 3.1 mph 4.5 mph 52% 0.00 in
09:34 73.9 °F 54.7 °F 30.10 in NE 2.2 mph 4.6 mph 51% 0.00 in
09:39 73.8 °F 54.5 °F 30.09 in East 0.7 mph 3.5 mph 51% 0.00 in
09:44 74.7 °F 54.8 °F 30.09 in Calm     50% 0.00 in
09:49 75.2 °F 55.3 °F 30.09 in NE 0.7 mph 3.5 mph 50% 0.00 in
09:54 75.6 °F 55.1 °F 30.10 in South 1.6 mph 3.5 mph 49% 0.00 in
09:58 75.2 °F 55.3 °F 30.08 in West 1.6 mph 3.8 mph 50% 0.00 in
10:03 74.8 °F 54.9 °F 30.09 in West 0.7 mph 3.8 mph 50% 0.00 in
10:08 74.8 °F 54.9 °F 30.08 in Calm     50% 0.00 in
10:13 75.4 °F 54.9 °F 30.08 in Calm   3.5 mph 49% 0.00 in
10:17 75.9 °F 55.4 °F 30.08 in Calm     49% 0.00 in
10:23 77.5 °F 56.9 °F 30.08 in Calm   2.2 mph 49% 0.00 in
10:28 79.0 °F 56.4 °F 30.08 in Calm   2.3 mph 46% 0.00 in
10:33 78.6 °F 54.9 °F 30.08 in NE 0.7 mph 4.6 mph 44% 0.00 in
10:38 78.3 °F 55.2 °F 30.08 in NW 2.2 mph 5.8 mph 45% 0.00 in
10:44 77.9 °F 55.5 °F 30.08 in NE 1.6 mph 3.8 mph 46% 0.00 in
10:48 78.8 °F 55.7 °F 30.08 in Calm   1.2 mph 45% 0.00 in
10:53 79.2 °F 55.4 °F 30.08 in West 0.7 mph 6.9 mph 44% 0.00 in
10:58 78.8 °F 55.7 °F 30.08 in South 1.6 mph 5.8 mph 45% 0.00 in
11:03 78.8 °F 55.7 °F 30.07 in South 2.2 mph 4.6 mph 45% 0.00 in
11:08 79.0 °F 55.2 °F 30.07 in Calm   3.5 mph 44% 0.00 in
11:13 79.0 °F 54.6 °F 30.07 in Calm     43% 0.00 in
11:18 79.9 °F 56.0 °F 30.07 in South 2.2 mph 4.6 mph 44% 0.00 in
11:23 79.5 °F 55.7 °F 30.07 in SW 3.1 mph 8.3 mph 44% 0.00 in
11:29 78.8 °F 53.8 °F 30.07 in SE 2.2 mph 4.6 mph 42% 0.00 in
11:33 79.7 °F 54.6 °F 30.07 in NE 2.2 mph 4.5 mph 42% 0.00 in
11:38 79.5 °F 53.8 °F 30.07 in East 1.6 mph 4.6 mph 41% 0.00 in
11:43 79.5 °F 55.7 °F 30.07 in SE 1.6 mph 4.6 mph 44% 0.00 in
11:48 79.9 °F 56.6 °F 30.07 in South 3.8 mph 8.3 mph 45% 0.00 in
11:54 80.4 °F 55.2 °F 30.07 in SE 2.2 mph 6.9 mph 42% 0.00 in
Klamath Falls Weather
Compliments of Weather Underground - 2 mb